Time;durP1;ratioP1;P1;durP2;ratioP2;P2;SDS_P1;SDS_P2;PMS_P1;PMS_P2;Temp;Humidity;BMP_temperature;BMP_pressure;BME280_temperature;BME280_humidity;BME280_pressure;Samples;Min_cycle;Max_cycle;Signal;HPM_P1;HPM_P2
2023/04/17 00:00:07;;;;;;;9.70;7.22;;;;;;;11.64;100.00;98728.28;5115068;28;20031;-76
2023/04/17 00:02:37;;;;;;;10.30;7.13;;;;;;;12.02;100.00;98776.31;5114177;28;20118;-73
2023/04/17 00:05:02;;;;;;;10.73;7.38;;;;;;;11.89;100.00;98772.78;5115632;28;20111;-74
2023/04/17 00:07:28;;;;;;;11.52;7.78;;;;;;;11.89;100.00;98760.06;5115469;28;20138;-74
2023/04/17 00:09:55;;;;;;;11.88;7.97;;;;;;;11.71;100.00;98771.19;5115124;28;20031;-75
2023/04/17 00:12:21;;;;;;;12.40;8.20;;;;;;;11.30;100.00;98694.44;5114846;28;20096;-75
2023/04/17 00:14:46;;;;;;;11.82;8.43;;;;;;;11.16;100.00;98685.84;5148535;27;20401;-74
2023/04/17 00:17:11;;;;;;;13.57;8.32;;;;;;;11.54;100.00;98725.41;5114483;28;20036;-75
2023/04/17 00:19:37;;;;;;;12.60;7.97;;;;;;;11.20;100.00;98669.53;5114924;28;20035;-75
2023/04/17 00:22:02;;;;;;;12.00;8.73;;;;;;;11.10;100.00;98660.72;5114781;27;20564;-76
2023/04/17 00:24:28;;;;;;;16.30;9.15;;;;;;;11.14;100.00;98663.03;5114644;28;20035;-74
2023/04/17 00:27:02;;;;;;;14.88;10.05;;;;;;;11.66;100.00;98704.44;5113757;28;20046;-74
2023/04/17 00:29:28;;;;;;;11.68;9.88;;;;;;;11.77;100.00;98689.41;5115192;28;20024;-75
2023/04/17 00:31:53;;;;;;;13.77;10.30;;;;;;;11.52;100.00;98658.50;5113613;28;20032;-76
2023/04/17 00:34:18;;;;;;;13.70;10.60;;;;;;;11.64;100.00;98682.47;5113431;28;20042;-75
2023/04/17 00:36:44;;;;;;;15.85;11.27;;;;;;;11.34;100.00;98624.69;5113253;28;20023;-74
2023/04/17 00:39:09;;;;;;;15.13;11.10;;;;;;;11.77;100.00;98691.94;5114804;28;20088;-72
2023/04/17 00:41:35;;;;;;;15.48;11.20;;;;;;;11.85;100.00;98686.44;5114867;28;20027;-75
2023/04/17 00:44:00;;;;;;;16.75;11.20;;;;;;;11.71;100.00;98646.44;5114664;28;20031;-75
2023/04/17 00:46:26;;;;;;;18.27;12.10;;;;;;;11.37;100.00;98618.59;5113354;28;20035;-75
2023/04/17 00:48:51;;;;;;;16.25;11.18;;;;;;;11.40;100.00;98620.16;5113322;28;20129;-73
2023/04/17 00:51:17;;;;;;;18.38;12.85;;;;;;;11.64;100.00;98683.31;5112918;28;20027;-75
2023/04/17 00:53:42;;;;;;;19.98;13.80;;;;;;;11.65;100.00;98679.00;5117665;27;20055;-75
2023/04/17 00:56:08;;;;;;;18.20;13.38;;;;;;;11.58;100.00;98688.72;5133650;27;20035;-75
2023/04/17 00:58:36;;;;;;;18.33;13.50;;;;;;;11.43;100.00;98615.72;5134794;27;20417;-75
2023/04/17 01:01:01;;;;;;;21.55;15.00;;;;;;;11.83;100.00;98670.44;5135149;27;20619;-74
2023/04/17 01:03:28;;;;;;;23.63;14.82;;;;;;;11.82;100.00;98656.06;5116371;27;20138;-75
2023/04/17 01:05:54;;;;;;;21.92;15.40;;;;;;;11.76;100.00;98666.59;5116654;27;20031;-75
2023/04/17 01:08:21;;;;;;;20.88;15.63;;;;;;;11.68;100.00;98654.28;5116185;27;20031;-74
2023/04/17 01:10:46;;;;;;;23.98;16.50;;;;;;;11.39;100.00;98578.59;5134001;27;20049;-75
2023/04/17 01:13:12;;;;;;;22.95;15.85;;;;;;;11.45;100.00;98601.19;5133860;27;20401;-74
2023/04/17 01:15:37;;;;;;;22.45;16.10;;;;;;;11.57;100.00;98640.44;5115966;27;20027;-74
2023/04/17 01:18:02;;;;;;;21.90;15.40;;;;;;;11.42;100.00;98659.06;5116457;27;20038;-75
2023/04/17 01:20:30;;;;;;;19.30;15.77;;;;;;;11.50;100.00;98634.84;5134710;27;20557;-74
2023/04/17 01:22:59;;;;;;;24.17;15.50;;;;;;;10.95;100.00;98537.75;5115177;27;20043;-74
2023/04/17 01:25:28;;;;;;;22.83;16.30;;;;;;;11.30;100.00;98584.22;5133601;27;20035;-74
2023/04/17 01:27:54;;;;;;;22.38;15.02;;;;;;;11.62;100.00;98618.94;5134190;27;20026;-74
2023/04/17 01:30:19;;;;;;;19.35;15.60;;;;;;;11.14;100.00;98591.00;5115658;27;20027;-74
2023/04/17 01:32:45;;;;;;;22.60;15.63;;;;;;;11.30;100.00;98627.44;5115402;27;20427;-74
2023/04/17 01:35:10;;;;;;;22.08;15.93;;;;;;;11.44;100.00;98632.63;5115410;27;20080;-75
2023/04/17 01:37:36;;;;;;;24.58;15.95;;;;;;;11.53;100.00;98626.25;5133531;27;20501;-74
2023/04/17 01:40:06;;;;;;;21.73;15.60;;;;;;;11.70;100.00;98606.63;5133608;27;20421;-74
2023/04/17 01:42:33;;;;;;;21.70;15.80;;;;;;;11.85;100.00;98604.97;5114710;27;20083;-74
2023/04/17 01:44:58;;;;;;;21.85;16.17;;;;;;;11.37;100.00;98542.25;5133542;27;20031;-75
2023/04/17 01:47:24;;;;;;;21.38;15.45;;;;;;;11.68;100.00;98618.63;5101955;27;20035;-74
2023/04/17 01:49:49;;;;;;;22.75;15.32;;;;;;;11.41;100.00;98581.91;5116036;27;20027;-75
2023/04/17 01:52:15;;;;;;;20.30;15.05;;;;;;;11.27;100.00;98572.47;5133558;27;20035;-74
2023/04/17 01:54:40;;;;;;;22.60;15.80;;;;;;;11.72;100.00;98599.75;5133617;27;20051;-76
2023/04/17 01:57:05;;;;;;;22.25;15.20;;;;;;;11.65;100.00;98595.84;5114655;27;20432;-75
2023/04/17 01:59:31;;;;;;;19.85;15.23;;;;;;;11.88;100.00;98626.00;5115173;27;20027;-74
2023/04/17 02:01:56;;;;;;;24.85;15.27;;;;;;;11.35;100.00;98564.41;5113190;27;20031;-75
2023/04/17 02:04:22;;;;;;;21.08;15.05;;;;;;;11.68;100.00;98643.25;5114984;27;20474;-75
2023/04/17 02:06:47;;;;;;;20.55;15.10;;;;;;;11.33;100.00;98582.31;5132343;27;20035;-75
2023/04/17 02:09:13;;;;;;;23.40;16.05;;;;;;;11.64;100.00;98629.03;5114852;27;20053;-78
2023/04/17 02:11:38;;;;;;;25.85;15.85;;;;;;;11.82;100.00;98613.63;5114889;27;20027;-75
2023/04/17 02:14:04;;;;;;;22.25;15.07;;;;;;;12.05;100.00;98613.16;5114696;27;20058;-75
2023/04/17 02:16:30;;;;;;;21.73;15.02;;;;;;;11.55;100.00;98555.72;5133106;27;20027;-76
2023/04/17 02:18:56;;;;;;;22.63;14.93;;;;;;;12.01;100.00;98610.84;5127103;27;20027;-76
2023/04/17 02:21:21;;;;;;;20.30;15.75;;;;;;;11.60;100.00;98546.09;5120229;27;20046;-75
2023/04/17 02:23:46;;;;;;;24.35;16.52;;;;;;;12.03;100.00;98601.41;5114780;27;20027;-76
2023/04/17 02:26:12;;;;;;;22.67;16.05;;;;;;;11.94;100.00;98610.34;5114484;27;20059;-76
2023/04/17 02:28:38;;;;;;;24.33;15.70;;;;;;;11.59;100.00;98560.53;5115092;27;20031;-76
2023/04/17 02:31:07;;;;;;;21.75;14.90;;;;;;;11.30;100.00;98526.53;5132967;27;20474;-76
2023/04/17 02:33:35;;;;;;;22.20;14.85;;;;;;;12.08;100.00;98630.00;5114804;27;20027;-76
2023/04/17 02:36:00;;;;;;;20.45;14.52;;;;;;;12.26;100.00;98616.19;5132810;27;20031;-74
2023/04/17 02:38:28;;;;;;;20.02;13.68;;;;;;;12.07;100.00;98590.13;5114336;27;20508;-75
2023/04/17 02:40:54;;;;;;;20.55;14.00;;;;;;;12.34;100.00;98593.66;5115973;27;20023;-75
2023/04/17 02:43:19;;;;;;;19.42;14.02;;;;;;;12.06;100.00;98586.75;5135143;27;20035;-75
2023/04/17 02:45:45;;;;;;;20.77;13.95;;;;;;;12.02;100.00;98567.47;5133925;27;20481;-75
2023/04/17 02:48:10;;;;;;;22.40;13.25;;;;;;;12.32;100.00;98603.09;5133129;27;20035;-73
2023/04/17 02:50:36;;;;;;;21.40;14.05;;;;;;;11.93;100.00;98545.06;5132729;27;20027;-72
2023/04/17 02:53:01;;;;;;;20.77;15.18;;;;;;;12.36;100.00;98614.75;5114843;27;20043;-74
2023/04/17 02:55:27;;;;;;;22.25;14.00;;;;;;;12.32;100.00;98604.84;5114007;27;20047;-74
2023/04/17 02:57:53;;;;;;;21.08;15.20;;;;;;;12.20;100.00;98597.00;5105941;28;20040;-74
2023/04/17 03:00:21;;;;;;;25.60;16.27;;;;;;;12.39;100.00;98618.88;5111404;28;20027;-74
2023/04/17 03:02:47;;;;;;;23.65;17.10;;;;;;;12.57;100.00;98611.00;5112902;28;20032;-76
2023/04/17 03:05:13;;;;;;;24.25;17.08;;;;;;;12.14;100.00;98543.03;5112232;28;20123;-75
2023/04/17 03:07:39;;;;;;;23.48;16.42;;;;;;;12.58;100.00;98606.69;5113058;28;20046;-75
2023/04/17 03:10:07;;;;;;;25.40;16.40;;;;;;;12.12;100.00;98568.56;5132838;27;20043;-75
2023/04/17 03:12:32;;;;;;;20.48;15.45;;;;;;;12.34;100.00;98608.13;5132378;27;20557;-75
2023/04/17 03:14:58;;;;;;;20.63;14.88;;;;;;;12.38;100.00;98604.50;5106168;27;20039;-75
2023/04/17 03:17:23;;;;;;;22.58;15.40;;;;;;;12.21;100.00;98551.97;5150234;27;20077;-75
2023/04/17 03:19:48;;;;;;;21.05;15.10;;;;;;;12.12;100.00;98555.03;5143331;27;20477;-76
2023/04/17 03:22:14;;;;;;;21.85;15.05;;;;;;;12.40;100.00;98585.66;5114011;28;20080;-75
2023/04/17 03:24:40;;;;;;;18.83;13.73;;;;;;;12.34;100.00;98610.69;5114164;28;20489;-76
2023/04/17 03:27:05;;;;;;;20.92;14.38;;;;;;;11.89;100.00;98538.50;5132858;28;20095;-76
2023/04/17 03:29:31;;;;;;;21.70;14.90;;;;;;;12.26;100.00;98600.91;5133125;28;20400;-76
2023/04/17 03:31:56;;;;;;;19.52;13.88;;;;;;;11.69;100.00;98502.34;5131793;28;20035;-76
2023/04/17 03:34:22;;;;;;;19.90;13.73;;;;;;;11.63;100.00;98516.19;5114157;28;20023;-75
2023/04/17 03:36:48;;;;;;;18.17;14.45;;;;;;;12.28;100.00;98609.28;5132681;28;20027;-76
2023/04/17 03:39:14;;;;;;;19.30;13.57;;;;;;;12.07;100.00;98595.22;5133378;28;20414;-76
2023/04/17 03:41:40;;;;;;;20.00;13.85;;;;;;;11.76;100.00;98557.09;5130652;28;20031;-74
2023/04/17 03:44:07;;;;;;;17.70;12.88;;;;;;;12.15;100.00;98613.44;5113279;28;20420;-74
2023/04/17 03:46:33;;;;;;;17.98;14.27;;;;;;;12.07;100.00;98567.22;5132183;28;20068;-76
2023/04/17 03:48:58;;;;;;;19.25;14.32;;;;;;;12.34;100.00;98592.84;5113380;28;20116;-74
2023/04/17 03:51:23;;;;;;;19.67;14.07;;;;;;;12.43;100.00;98595.69;5131725;28;20031;-75
2023/04/17 03:53:49;;;;;;;21.80;14.07;;;;;;;12.13;100.00;98621.19;5134164;27;20055;-74
2023/04/17 03:56:14;;;;;;;23.73;14.02;;;;;;;12.21;100.00;98597.81;5123401;28;20519;-76
2023/04/17 03:58:40;;;;;;;19.23;13.50;;;;;;;12.09;100.00;98608.69;5106674;28;20048;-75
2023/04/17 04:01:09;;;;;;;26.00;13.77;;;;;;;12.14;100.00;98630.44;5131417;28;20103;-74
2023/04/17 04:03:34;;;;;;;18.15;13.23;;;;;;;11.73;100.00;98531.81;5114851;28;20091;-74
2023/04/17 04:06:00;;;;;;;16.50;12.80;;;;;;;12.31;100.00;98618.50;5114059;28;20118;-75
2023/04/17 04:08:25;;;;;;;20.92;14.40;;;;;;;12.35;100.00;98625.06;5113562;28;20062;-75
2023/04/17 04:10:51;;;;;;;19.65;14.02;;;;;;;12.35;100.00;98636.06;5113954;28;20088;-75
2023/04/17 04:13:16;;;;;;;19.52;13.48;;;;;;;11.89;100.00;98537.69;5131642;28;20084;-74
2023/04/17 04:15:42;;;;;;;21.52;16.58;;;;;;;12.39;100.00;98644.34;5131266;28;20019;-74
2023/04/17 04:18:07;;;;;;;24.98;18.23;;;;;;;12.41;100.00;98619.63;5131479;28;20037;-73
2023/04/17 04:20:32;;;;;;;20.77;16.95;;;;;;;11.71;100.00;98521.72;5111140;28;20027;-74
2023/04/17 04:22:58;;;;;;;23.92;16.10;;;;;;;12.52;100.00;98658.88;5131188;28;20039;-73
2023/04/17 04:25:25;;;;;;;17.95;14.43;;;;;;;12.44;100.00;98666.13;5130941;28;20027;-74
2023/04/17 04:27:51;;;;;;;19.27;13.70;;;;;;;12.14;100.00;98630.44;5131730;28;20024;-74
2023/04/17 04:30:17;;;;;;;15.38;13.57;;;;;;;12.31;100.00;98669.44;5114321;27;20063;-73
2023/04/17 04:32:44;;;;;;;19.48;16.75;;;;;;;11.90;100.00;98582.63;5116580;27;20079;-75
2023/04/17 04:35:13;;;;;;;22.27;17.77;;;;;;;12.23;100.00;98644.41;5117239;27;20524;-75
2023/04/17 04:37:41;;;;;;;20.33;15.88;;;;;;;12.28;100.00;98656.91;5116708;27;20027;-72
2023/04/17 04:40:11;;;;;;;20.80;17.00;;;;;;;12.12;100.00;98599.16;5117146;27;20508;-73
2023/04/17 04:42:38;;;;;;;20.85;15.63;;;;;;;12.20;100.00;98629.31;5135343;27;20035;-74
2023/04/17 04:45:04;;;;;;;23.08;17.98;;;;;;;12.31;100.00;98664.34;4766666;27;10000260;-75
2023/04/17 04:47:30;;;;;;;25.08;18.75;;;;;;;12.43;100.00;98646.66;5114181;27;20042;-77
2023/04/17 04:49:55;;;;;;;102.43;79.22;;;;;;;12.38;100.00;98642.72;5114411;27;20023;-76
2023/04/17 04:52:20;;;;;;;36.42;28.50;;;;;;;12.46;100.00;98645.66;5110084;28;20031;-75
2023/04/17 04:54:46;;;;;;;17.27;12.80;;;;;;;12.63;100.00;98642.97;5128678;27;20054;-78
2023/04/17 04:57:11;;;;;;;19.45;14.40;;;;;;;11.96;100.00;98600.91;5117351;27;20051;-76
2023/04/17 04:59:37;;;;;;;15.20;12.73;;;;;;;12.32;100.00;98650.72;5114324;27;20035;-75
2023/04/17 05:02:02;;;;;;;14.77;12.55;;;;;;;12.34;100.00;98648.91;5108615;28;20035;-76
2023/04/17 05:04:27;;;;;;;20.00;12.77;;;;;;;12.35;100.00;98655.63;5111758;28;20036;-75
2023/04/17 05:06:53;;;;;;;19.35;13.20;;;;;;;12.34;100.00;98651.47;5120914;27;20043;-74
2023/04/17 05:09:21;;;;;;;19.73;12.75;;;;;;;12.42;100.00;98634.81;5093997;28;20494;-73
2023/04/17 05:11:47;;;;;;;17.70;11.95;;;;;;;12.25;100.00;98598.44;5112487;28;20515;-74
2023/04/17 05:14:13;;;;;;;15.20;11.55;;;;;;;12.82;100.00;98630.78;5102348;27;20038;-77
2023/04/17 05:16:39;;;;;;;19.02;14.38;;;;;;;12.13;100.00;98589.78;5113712;27;20039;-75
2023/04/17 05:19:04;;;;;;;46.42;34.35;;;;;;;12.51;100.00;98648.75;5112678;27;20023;-75
2023/04/17 05:21:30;;;;;;;13.13;11.18;;;;;;;12.33;100.00;98616.69;5130958;27;20035;-75
2023/04/17 05:23:55;;;;;;;16.90;11.85;;;;;;;11.88;100.00;98536.06;5112255;27;20511;-73
2023/04/17 05:26:21;;;;;;;15.98;12.00;;;;;;;12.14;100.00;98586.34;5131682;27;20023;-73
2023/04/17 05:28:46;;;;;;;13.90;11.80;;;;;;;12.45;100.00;98651.66;5131539;27;20031;-74
2023/04/17 05:31:13;;;;;;;15.15;11.45;;;;;;;12.40;100.00;98633.28;5131157;27;20023;-72
2023/04/17 05:33:38;;;;;;;13.27;11.27;;;;;;;12.45;100.00;98647.41;5113542;27;20023;-75
2023/04/17 05:36:04;;;;;;;15.80;10.88;;;;;;;12.40;100.00;98662.09;5130428;27;20037;-74
2023/04/17 05:38:29;;;;;;;13.18;11.40;;;;;;;12.35;100.00;98642.91;5130359;27;20059;-72
2023/04/17 05:40:54;;;;;;;17.42;11.23;;;;;;;13.05;100.00;98643.84;5112931;27;20087;-76
2023/04/17 05:43:20;;;;;;;15.98;11.05;;;;;;;12.61;100.00;98648.16;5111368;27;20069;-75
2023/04/17 05:45:46;;;;;;;14.00;11.77;;;;;;;12.34;100.00;98585.22;5130407;27;20061;-74
2023/04/17 05:48:11;;;;;;;13.82;11.60;;;;;;;12.61;100.00;98644.78;5130893;27;20054;-76
2023/04/17 05:50:37;;;;;;;14.65;12.13;;;;;;;12.65;100.00;98648.78;5131062;27;20489;-74
2023/04/17 05:53:03;;;;;;;13.75;11.85;;;;;;;12.36;100.00;98596.94;5112237;27;20166;-75
2023/04/17 05:55:28;;;;;;;15.90;12.15;;;;;;;12.69;100.00;98652.81;5130594;27;20691;-76
2023/04/17 05:57:54;;;;;;;16.95;12.27;;;;;;;12.46;100.00;98617.63;5111979;27;20083;-76
2023/04/17 06:00:21;;;;;;;13.18;10.85;;;;;;;12.75;100.00;98671.13;5132100;27;20092;-76
2023/04/17 06:02:46;;;;;;;14.55;11.00;;;;;;;12.47;100.00;98617.53;5130131;27;20023;-76
2023/04/17 06:05:12;;;;;;;13.98;10.38;;;;;;;12.60;100.00;98612.53;5129733;27;20082;-76
2023/04/17 06:07:37;;;;;;;14.15;10.98;;;;;;;12.95;100.00;98680.97;5129732;27;20031;-75
2023/04/17 06:10:07;;;;;;;12.95;10.57;;;;;;;12.53;100.00;98601.06;5112925;27;20123;-74
2023/04/17 06:12:33;;;;;;;14.15;10.73;;;;;;;13.07;100.00;98676.09;5108128;27;20031;-75
2023/04/17 06:14:59;;;;;;;13.98;10.57;;;;;;;13.04;100.00;98680.47;5112136;27;20066;-75
2023/04/17 06:17:24;;;;;;;12.95;10.75;;;;;;;12.74;100.00;98615.94;5112068;27;20548;-75
2023/04/17 06:19:50;;;;;;;16.15;11.70;;;;;;;13.13;100.00;98679.13;5112175;27;20023;-74
2023/04/17 06:22:16;;;;;;;13.52;10.82;;;;;;;13.01;100.00;98621.94;5111955;27;20033;-74
2023/04/17 06:24:41;;;;;;;17.95;11.07;;;;;;;13.00;100.00;98616.94;5111410;27;20115;-74
2023/04/17 06:27:06;;;;;;;13.98;10.93;;;;;;;13.35;100.00;98669.25;5129038;27;20565;-72
2023/04/17 06:29:32;;;;;;;14.98;11.15;;;;;;;13.34;100.00;98619.13;5110844;27;20062;-72
2023/04/17 06:31:57;;;;;;;12.60;10.10;;;;;;;13.75;100.00;98658.25;5128098;27;20031;-72
2023/04/17 06:34:23;;;;;;;15.93;9.98;;;;;;;13.56;100.00;98588.81;5127741;27;20043;-73
2023/04/17 06:36:50;;;;;;;16.80;11.05;;;;;;;14.34;100.00;98628.13;5129338;27;20062;-71
2023/04/17 06:39:15;;;;;;;13.15;10.20;;;;;;;14.62;100.00;98615.16;5111823;27;20477;-73
2023/04/17 06:41:41;;;;;;;13.82;10.48;;;;;;;14.27;100.00;98654.97;5130103;27;20050;-76
2023/04/17 06:44:06;;;;;;;13.93;10.10;;;;;;;14.01;100.00;98658.34;5129551;27;20117;-75
2023/04/17 06:46:32;;;;;;;15.27;11.10;;;;;;;13.85;100.00;98623.56;5128997;27;20041;-76
2023/04/17 06:48:58;;;;;;;16.17;10.93;;;;;;;13.46;100.00;98554.56;5130240;27;20095;-74
2023/04/17 06:51:26;;;;;;;13.13;10.57;;;;;;;13.90;100.00;98661.59;5130119;27;20084;-74
2023/04/17 06:53:52;;;;;;;10.93;9.55;;;;;;;13.73;100.00;98675.41;5109693;27;20459;-74
2023/04/17 06:56:18;;;;;;;12.63;9.45;;;;;;;13.41;100.00;98607.63;5111932;27;20024;-74
2023/04/17 06:58:44;;;;;;;11.00;9.60;;;;;;;13.38;100.00;98610.38;5111526;27;20031;-74
2023/04/17 07:01:16;;;;;;;14.40;10.02;;;;;;;13.50;100.00;98619.00;5130661;27;20493;-75
2023/04/17 07:03:41;;;;;;;13.55;9.40;;;;;;;13.78;100.00;98675.13;5128299;27;20031;-74
2023/04/17 07:06:07;;;;;;;11.55;9.50;;;;;;;13.90;100.00;98664.16;5129523;27;20077;-76
2023/04/17 07:08:33;;;;;;;11.30;9.07;;;;;;;13.62;100.00;98598.66;5109001;27;20082;-75
2023/04/17 07:11:00;;;;;;;10.52;9.20;;;;;;;14.03;100.00;98659.06;5111420;28;20031;-74
2023/04/17 07:13:30;;;;;;;11.65;8.32;;;;;;;13.62;100.00;98613.97;5111274;27;20064;-76
2023/04/17 07:15:57;;;;;;;10.90;8.98;;;;;;;14.30;100.00;98640.28;5129773;27;20121;-73
2023/04/17 07:18:24;;;;;;;12.98;9.13;;;;;;;13.55;100.00;98573.56;5130047;27;20103;-73
2023/04/17 07:20:50;;;;;;;12.20;9.50;;;;;;;13.80;100.00;98612.00;5110612;27;20050;-74
2023/04/17 07:23:15;;;;;;;12.30;9.50;;;;;;;14.06;100.00;98638.44;5128811;27;20066;-75
2023/04/17 07:25:41;;;;;;;12.20;9.68;;;;;;;13.82;100.00;98589.72;5111559;28;20062;-75
2023/04/17 07:28:06;;;;;;;13.45;10.45;;;;;;;13.90;100.00;98587.50;5111869;28;20039;-75
2023/04/17 07:30:32;;;;;;;12.60;9.63;;;;;;;14.27;100.00;98644.72;5129208;28;20118;-74
2023/04/17 07:32:57;;;;;;;10.55;8.80;;;;;;;14.28;100.00;98654.09;5111046;28;20810;-78
2023/04/17 07:35:23;;;;;;;11.75;8.65;;;;;;;13.50;100.00;98560.28;5110747;28;20035;-76
2023/04/17 07:37:48;;;;;;;13.75;9.68;;;;;;;14.25;100.00;98644.00;5111161;28;20427;-75
2023/04/17 07:40:17;;;;;;;13.57;10.25;;;;;;;14.00;100.00;98603.06;5129200;28;20113;-76
2023/04/17 07:42:42;;;;;;;14.05;10.48;;;;;;;14.24;100.00;98650.84;5111016;28;20031;-77
2023/04/17 07:45:09;;;;;;;11.68;9.75;;;;;;;13.97;100.00;98603.25;5128929;28;20039;-77
2023/04/17 07:47:34;;;;;;;8.35;7.35;;;;;;;13.93;100.00;98600.06;5111780;28;20035;-78
2023/04/17 07:49:59;;;;;;;9.32;7.60;;;;;;;14.01;100.00;98602.97;5129278;28;20038;-77
2023/04/17 07:52:25;;;;;;;8.93;7.63;;;;;;;14.41;100.00;98650.63;5130257;28;20114;-77
2023/04/17 07:54:50;;;;;;;8.13;6.15;;;;;;;14.61;100.00;98662.13;5111631;28;20050;-78
2023/04/17 07:57:17;;;;;;;7.85;5.88;;;;;;;14.18;100.00;98601.88;5110613;28;20035;-75
2023/04/17 07:59:43;;;;;;;6.75;5.45;;;;;;;14.45;100.00;98600.09;5110931;28;20035;-79
2023/04/17 08:02:09;;;;;;;6.50;4.60;;;;;;;14.55;100.00;98663.34;5127766;28;20031;-77
2023/04/17 08:04:34;;;;;;;7.68;4.78;;;;;;;14.23;100.00;98595.56;5110857;27;20031;-77
2023/04/17 08:06:59;;;;;;;5.45;4.13;;;;;;;14.56;100.00;98654.75;5132996;27;20065;-77
2023/04/17 08:09:25;;;;;;;4.28;3.83;;;;;;;14.61;100.00;98667.25;5114055;27;20092;-77
2023/04/17 08:11:50;;;;;;;6.85;4.80;;;;;;;14.63;100.00;98666.22;5133175;27;20109;-77
2023/04/17 08:14:19;;;;;;;6.22;5.40;;;;;;;14.35;100.00;98624.63;5114191;27;20187;-77
2023/04/17 08:16:46;;;;;;;7.88;5.80;;;;;;;14.47;100.00;98669.88;5115316;27;20031;-77
2023/04/17 08:19:11;;;;;;;6.45;5.85;;;;;;;14.12;100.00;98630.41;5132809;27;20027;-78
2023/04/17 08:21:37;;;;;;;7.43;5.03;;;;;;;14.12;100.00;98656.78;5132272;27;20107;-80
2023/04/17 08:24:02;;;;;;;7.82;4.93;;;;;;;14.51;100.00;98676.44;5134562;27;20031;-78
2023/04/17 08:26:28;;;;;;;7.20;5.65;;;;;;;14.09;100.00;98727.69;5134488;27;20035;-79
2023/04/17 08:28:54;;;;;;;5.50;5.00;;;;;;;13.55;100.00;98653.53;5115208;27;20031;-80
2023/04/17 08:31:20;;;;;;;6.40;5.40;;;;;;;13.94;100.00;98694.50;5112666;27;20062;-75
2023/04/17 08:33:45;;;;;;;8.10;5.78;;;;;;;13.79;100.00;98698.00;5143821;27;20438;-73
2023/04/17 08:36:11;;;;;;;5.78;4.93;;;;;;;13.41;100.00;98661.22;5153425;27;20121;-76
2023/04/17 08:38:36;;;;;;;7.05;5.03;;;;;;;13.60;100.00;98728.16;5115746;27;20031;-77
2023/04/17 08:41:06;;;;;;;6.15;5.28;;;;;;;13.13;100.00;98661.28;5114820;27;20107;-76
2023/04/17 08:43:34;;;;;;;8.15;5.63;;;;;;;13.47;100.00;98736.66;5133647;27;20114;-74
2023/04/17 08:46:00;;;;;;;11.10;8.13;;;;;;;12.79;100.00;98624.16;5111647;27;20130;-73
2023/04/17 08:48:26;;;;;;;15.95;12.90;;;;;;;12.69;100.00;98628.13;5116811;27;20498;-73
2023/04/17 08:50:52;;;;;;;14.18;12.68;;;;;;;13.17;100.00;98703.56;5111549;28;20029;-73
2023/04/17 08:53:19;;;;;;;23.23;20.80;;;;;;;12.90;100.00;98633.69;5135066;27;20031;-73
2023/04/17 08:55:45;;;;;;;26.58;19.67;;;;;;;13.30;100.00;98718.94;5116852;27;20051;-73
2023/04/17 08:58:11;;;;;;;16.40;11.30;;;;;;;13.37;100.00;98731.25;5094151;28;20039;-72
2023/04/17 09:00:38;;;;;;;13.27;10.95;;;;;;;13.26;100.00;98692.78;5123433;27;20543;-73
2023/04/17 09:03:11;;;;;;;12.88;11.40;;;;;;;13.32;100.00;98687.31;5103003;28;20030;-74
2023/04/17 09:05:40;;;;;;;12.50;10.43;;;;;;;13.73;100.00;98739.25;5100588;27;20432;-71
2023/04/17 09:08:08;;;;;;;11.10;8.73;;;;;;;13.59;100.00;98753.75;5131887;27;20090;-73
2023/04/17 09:10:42;;;;;;;9.70;7.40;;;;;;;13.71;100.00;98742.81;5134756;27;20086;-74
2023/04/17 09:13:08;;;;;;;8.48;7.47;;;;;;;13.53;100.00;98720.94;5140999;27;20056;-76
2023/04/17 09:15:35;;;;;;;12.23;8.13;;;;;;;13.75;100.00;98752.75;5114930;27;20038;-73
2023/04/17 09:18:02;;;;;;;9.98;8.93;;;;;;;13.94;100.00;98753.28;5113602;27;20062;-75
2023/04/17 09:20:27;;;;;;;10.25;8.65;;;;;;;13.81;100.00;98743.91;5114096;27;20340;-75
2023/04/17 09:23:02;;;;;;;13.10;9.07;;;;;;;13.82;100.00;98754.03;5114175;27;20516;-73
2023/04/17 09:25:28;;;;;;;10.65;9.52;;;;;;;13.38;100.00;98694.59;5096077;28;20031;-74
2023/04/17 09:28:15;;;;;;;10.30;8.60;;;;;;;13.45;100.00;98715.50;5094767;28;20055;-74
2023/04/17 09:30:41;;;;;;;13.13;10.50;;;;;;;13.85;100.00;98748.72;5144152;27;20039;-76
2023/04/17 09:33:08;;;;;;;14.13;10.77;;;;;;;13.30;100.00;98648.31;5153054;27;20026;-76
2023/04/17 09:35:37;;;;;;;12.38;10.55;;;;;;;13.49;100.00;98697.31;5153892;27;20089;-75
2023/04/17 09:38:03;;;;;;;10.85;9.30;;;;;;;13.55;100.00;98755.69;5134834;27;20475;-75
2023/04/17 09:40:36;;;;;;;10.88;9.68;;;;;;;13.55;100.00;98719.09;5152904;27;20054;-74
2023/04/17 09:43:09;;;;;;;11.23;9.52;;;;;;;13.86;100.00;98749.56;5125736;27;20027;-74
2023/04/17 09:45:40;;;;;;;11.30;9.98;;;;;;;13.88;100.00;98745.97;5133216;27;20031;-74
2023/04/17 09:48:10;;;;;;;12.18;10.90;;;;;;;13.90;100.00;98754.38;5126490;27;20566;-75
2023/04/17 09:50:36;;;;;;;12.60;10.95;;;;;;;13.19;100.00;98670.28;5108689;27;20028;-73
2023/04/17 09:53:05;;;;;;;10.82;9.70;;;;;;;13.34;100.00;98710.19;5111770;27;20058;-75
2023/04/17 09:55:32;;;;;;;13.77;10.68;;;;;;;13.68;100.00;98768.56;5134830;27;20046;-74
2023/04/17 09:58:01;;;;;;;16.55;12.98;;;;;;;13.43;100.00;98713.00;5128082;27;20031;-75
2023/04/17 10:00:27;;;;;;;11.43;10.23;;;;;;;13.54;100.00;98794.09;5131915;27;20027;-73
2023/04/17 10:02:53;;;;;;;10.93;9.75;;;;;;;13.61;100.00;98777.47;5127132;27;20039;-76
2023/04/17 10:05:20;;;;;;;13.45;10.75;;;;;;;13.65;100.00;98779.75;5124263;27;20070;-75
2023/04/17 10:07:46;;;;;;;14.00;11.20;;;;;;;13.55;100.00;98780.38;5128606;27;20027;-76
2023/04/17 10:10:21;;;;;;;13.93;11.38;;;;;;;13.46;100.00;98802.19;5117354;27;20085;-76
2023/04/17 10:12:48;;;;;;;14.77;11.88;;;;;;;13.50;100.00;98788.34;5113149;27;20020;-74
2023/04/17 10:15:14;;;;;;;14.18;11.45;;;;;;;13.13;100.00;98706.38;5114347;27;20051;-73
2023/04/17 10:17:41;;;;;;;12.68;10.55;;;;;;;13.40;100.00;98784.69;5133611;27;20024;-73
2023/04/17 10:20:22;;;;;;;11.43;9.55;;;;;;;13.33;100.00;98785.94;5132993;27;20031;-74
2023/04/17 10:22:56;;;;;;;11.88;10.27;;;;;;;13.47;100.00;98787.72;5114959;27;20106;-74
2023/04/17 10:25:35;;;;;;;11.80;10.13;;;;;;;13.22;100.00;98734.72;5112175;27;20037;-74
2023/04/17 10:28:04;;;;;;;12.27;10.70;;;;;;;13.67;100.00;98779.66;5114587;27;20058;-73
2023/04/17 10:30:49;;;;;;;13.73;11.20;;;;;;;13.87;100.00;98777.56;5114845;27;20058;-74
2023/04/17 10:33:14;;;;;;;12.68;10.35;;;;;;;13.69;100.00;98739.53;5114303;28;20036;-76
2023/04/17 10:35:40;;;;;;;11.07;9.32;;;;;;;13.51;100.00;98684.50;5112368;28;20023;-74
2023/04/17 10:38:06;;;;;;;12.45;9.98;;;;;;;13.56;100.00;98674.81;5114511;27;20043;-73
2023/04/17 10:40:34;;;;;;;12.15;10.05;;;;;;;13.83;100.00;98681.59;5127642;27;20451;-73
2023/04/17 10:43:42;;;;;;;13.02;10.75;;;;;;;13.91;100.00;98738.13;5135038;27;20114;-75
2023/04/17 10:46:04;;;;;;;12.48;11.25;;;;;;;14.02;100.00;98719.59;5149468;27;20054;-75
2023/04/17 10:48:56;;;;;;;12.30;11.00;;;;;;;14.18;100.00;98720.25;5135318;27;20038;-75
2023/04/17 10:51:27;;;;;;;12.18;10.60;;;;;;;14.17;100.00;98718.63;5131100;27;20110;-75
2023/04/17 10:53:53;;;;;;;10.80;9.70;;;;;;;13.99;100.00;98734.28;5153979;27;20126;-76
2023/04/17 10:56:36;;;;;;;12.98;10.50;;;;;;;13.80;100.00;98726.94;5131085;27;20489;-75
2023/04/17 10:59:06;;;;;;;13.73;10.70;;;;;;;14.13;100.00;98719.75;5153272;27;20061;-75
2023/04/17 11:01:37;;;;;;;11.90;10.55;;;;;;;14.10;100.00;98714.84;5145167;27;20150;-76
2023/04/17 11:04:03;;;;;;;12.60;10.60;;;;;;;13.91;100.00;98715.16;5134369;27;20038;-76
2023/04/17 11:06:36;;;;;;;14.02;11.40;;;;;;;14.08;100.00;98724.34;5132329;27;20657;-74
2023/04/17 11:09:06;;;;;;;13.13;11.73;;;;;;;14.12;100.00;98720.66;5152495;27;20416;-75